Archival Weather

Tokyo Intl

Tokyo, Japan (RJTT)

Report from: Saturday, March 18, 2023 9:00 AM JST
Current time: Saturday, June 22, 2024 9:57 AM JST

Current weather – Weather history – Daily summaries
Weather forecast

Present weatherRain, light rain
Temperature9.0°C (48.2°F)
Wind chill6.3°C (43.3°F)
Dew point8.0°C (46.4°F)
Winds 10 kts (5.1 m/s, 11.5 mph) North-Northwest (340°)
Visibility3.7 mi. (6 km)
Clouds Few clouds 500 ft. (152 m)
Few clouds 500 ft. (152 m)
Ceiling: Broken clouds 800 ft. (244 m)
Scattered clouds 900 ft. (274 m)
Broken clouds 1,200 ft. (366 m)
Altimeter30.00 in.Hg (1016 mB)
Relative humidity93 %
Density altitude-659 ft. (-201 m)
Flight conditions Instrument Meteorological Conditions
Raw dataRJTT 180000Z 34010KT 6000 RA FEW005 SCT009 BKN012 09/08 Q1016 BECMG -RA TEMPO FEW005 BKN008 RMK 1ST005 3ST009 7SC012 A3001
An error has occurred. This application may no longer respond until reloaded. Reload 🗙